Lovelock, NV

5:50 PM PDT on September 20, 2014 (GMT -0700)
Derby | Change Station
CLOSE
Current Station
Airport
Location: Lovelock,
Elevation: 3904 ft
Nearby Weather Stations

Elev 3904 ft 40.07 °N, 118.57 °W | Updated 57 minutes ago

Clear
Clear
82 °F
Feels Like 82 °F
N
14
Wind Variable Wind from ENE

Today
High -- | Low -- °F
--% Chance of Precip.
Yesterday
High -- | Low -- °F
Precip. -- in
6:40 AM 6:54 PM
Waning Crescent, 9% visible
Pressure 29.91 in
Visibility 10.0 miles
Clouds Clear
Dew Point 41 °F
Humidity 23%
Rainfall 0.00 in
Snow Depth 0 in , 0 in , 2 in
UV 2 out of 12
Pollen 8.00 out of 12
Air Quality Not available.
Flu Activity Not available.
METAR KLOL 202353Z AUTO 07012KT 10SM CLR 28/05 A3002 RMK AO2 SLP127 60000 T02780050 10300 20261 58012

More Conditions Fewer Conditions

Pressure 29.91 in
Visibility 10.0 miles
Clouds Clear
Dew Point 41 °F
Humidity 23%
Rainfall 0.00 in
Snow Depth 0 in , 0 in , 2 in
UV 2 out of 12
Pollen 8.00 out of 12
Air Quality Not available.
Flu Activity Not available.
METAR KLOL 202353Z AUTO 07012KT 10SM CLR 28/05 A3002 RMK AO2 SLP127 60000 T02780050 10300 20261 58012

More Conditions Fewer Conditions

10-Day Weather Forecast

Almanac

Astronomy

Sep. 20, 2014 Rise Set
Actual Time 6:40 AM PDT 6:54 PM PDT
Civil Twilight 6:12 AM PDT 7:21 PM PDT
Nautical Twilight 5:41 AM PDT 7:53 PM PDT
Astronomical Twilight 5:08 AM PDT 8:25 PM PDT
Moon 3:23 AM PDT (9/20) 5:00 PM PDT (9/20)
Length of Visible Light 13h 08m
Length of Day
12h 14m
Tomorrow will be 2m 36s shorter.
Waning Crescent, 9% of the Moon is Illuminated
Today
Waning Crescent
Sep 24
New
Oct 1
First Quarter
Oct 8
Full
Oct 15
Last Quarter

Today's Extremes

State Highs State Lows

Community

WunderPhotos

Upload Photos

1,755,000 photos uploaded!

WunderBlogs® & News

Nearby

Snow Depth

Station Depth Elevation
Taylor Canyon 0 in 6200 ft
Pole Creek R.S. 0 in 8330 ft
Lamance Creek 0 in 6000 ft
Green Mountain 0 in 8000 ft
Buckskin Lower 2 in 6700 ft

Earthquake Activity

City Distance Mag. Time & Date
Lakeview, Oregon 136 miles 2.5 2:45 AM PDT
2014-09-20
Lakeview, Oregon 136 miles 2.5 10:12 PM PDT
2014-09-19
Lakeview, Oregon 135 miles 2.9 7:40 PM PDT
2014-09-19
Gabbs, Nevada 78 miles 3.3 4:37 AM PDT
2014-09-19
Minimum magnitude displayed is 2.5.

Coastal Water Temperatures

Place Temperature
No Stations Reporting

Nearby Weather Stations